createdAt,value
2022-08-18T00:02:04.852Z,24.7
2022-08-18T00:08:55.220Z,24.8
2022-08-18T00:13:56.019Z,24.7
2022-08-18T00:20:02.959Z,24.8
2022-08-18T00:25:40.575Z,24.8
2022-08-18T00:31:26.607Z,24.8
2022-08-18T00:37:03.228Z,24.7
2022-08-18T00:43:03.568Z,24.7
2022-08-18T00:49:08.843Z,24.7
2022-08-18T00:54:47.065Z,24.6
2022-08-18T01:00:36.388Z,24.6
2022-08-18T01:06:15.558Z,24.7
2022-08-18T01:11:54.079Z,24.7
2022-08-18T01:18:20.164Z,24.6
2022-08-18T01:23:56.043Z,24.6
2022-08-18T01:29:23.705Z,24.6
2022-08-18T01:35:14.593Z,24.6
2022-08-18T01:43:07.592Z,24.7
2022-08-18T01:49:04.753Z,24.6
2022-08-18T01:54:43.112Z,24.6
2022-08-18T02:00:12.427Z,24.6
2022-08-18T02:06:50.304Z,24.6
2022-08-18T02:12:48.196Z,24.6
2022-08-18T02:18:46.905Z,24.6
2022-08-18T02:24:10.150Z,24.6
2022-08-18T02:29:53.536Z,24.6
2022-08-18T02:35:32.090Z,24.6
2022-08-18T02:41:12.983Z,24.6
2022-08-18T02:46:24.945Z,24.6
2022-08-18T02:52:16.002Z,24.6
2022-08-18T02:58:04.999Z,24.6
2022-08-18T03:03:42.949Z,24.6
2022-08-18T03:09:23.018Z,24.5
2022-08-18T03:15:34.592Z,24.6
2022-08-18T03:21:27.101Z,24.6
2022-08-18T03:27:58.124Z,24.5
2022-08-18T03:33:34.455Z,24.5
2022-08-18T03:39:10.979Z,24.5
2022-08-18T03:45:50.698Z,24.5
2022-08-18T03:51:29.029Z,24.5
2022-08-18T03:57:07.426Z,24.5
2022-08-18T04:02:50.606Z,24.5
2022-08-18T04:08:43.511Z,24.4
2022-08-18T04:14:30.723Z,24.4
2022-08-18T04:20:34.765Z,24.4
2022-08-18T04:26:36.025Z,24.4
2022-08-18T04:32:17.294Z,24.4
2022-08-18T04:37:44.373Z,24.4
2022-08-18T04:43:32.744Z,24.4
2022-08-18T04:49:12.375Z,24.4
2022-08-18T04:56:11.611Z,24.4
2022-08-18T05:01:48.226Z,24.5
2022-08-18T05:07:25.146Z,24.5
2022-08-18T05:13:03.969Z,24.6
2022-08-18T05:19:26.252Z,24.6
2022-08-18T05:25:26.966Z,24.6
2022-08-18T05:31:29.884Z,24.6
2022-08-18T05:37:30.606Z,24.7
2022-08-18T05:43:15.129Z,24.7
2022-08-18T05:48:57.686Z,24.7
2022-08-18T05:54:41.780Z,24.7
2022-08-18T06:00:21.071Z,24.7
2022-08-18T06:06:00.812Z,24.7
2022-08-18T06:11:55.469Z,24.8
2022-08-18T06:17:23.224Z,24.8
2022-08-18T06:23:11.753Z,24.8
2022-08-18T06:28:49.522Z,24.8
2022-08-18T06:34:35.485Z,24.8
2022-08-18T06:40:26.020Z,24.8
2022-08-18T06:46:42.277Z,24.8
2022-08-18T06:52:29.628Z,24.9
2022-08-18T06:58:40.619Z,24.9
2022-08-18T07:04:20.228Z,24.9
2022-08-18T07:10:09.324Z,24.9
2022-08-18T07:15:55.711Z,24.9
2022-08-18T07:22:17.144Z,24.9
2022-08-18T07:28:17.310Z,24.9
2022-08-18T07:34:03.194Z,24.9
2022-08-18T07:40:07.805Z,24.9
2022-08-18T07:46:13.695Z,24.9
2022-08-18T07:53:44.882Z,24.9
2022-08-18T08:00:18.687Z,25
2022-08-18T08:06:51.137Z,25
2022-08-18T08:13:05.995Z,25
2022-08-18T08:19:56.583Z,25.1
2022-08-18T08:26:15.637Z,25.1
2022-08-18T08:32:08.548Z,25.1
2022-08-18T08:38:55.172Z,25.1
2022-08-18T08:44:58.692Z,25.1
2022-08-18T08:50:46.689Z,25.1
2022-08-18T08:56:35.481Z,25.1
2022-08-18T09:02:32.107Z,25.1
2022-08-18T09:08:31.135Z,25.1
2022-08-18T09:14:07.591Z,25.1
2022-08-18T09:19:50.687Z,25.1
2022-08-18T09:25:31.836Z,25.2
2022-08-18T13:05:07.676Z,25.1
2022-08-18T13:12:50.097Z,25.4
2022-08-18T13:19:40.530Z,25.4
2022-08-18T13:26:05.787Z,25.4
2022-08-18T13:33:33.798Z,25.4
2022-08-18T13:39:50.986Z,25.4
2022-08-18T13:46:33.874Z,25.5
2022-08-18T13:52:33.341Z,25.5
2022-08-18T13:59:10.052Z,25.5
2022-08-18T14:06:24.123Z,25.5
2022-08-18T14:12:56.666Z,25.5
2022-08-18T14:18:33.629Z,25.5
2022-08-18T14:24:48.567Z,25.5
2022-08-18T14:31:11.574Z,25.5
2022-08-18T14:38:35.560Z,25.6
2022-08-18T14:45:48.737Z,25.6
2022-08-18T14:52:16.995Z,25.5
2022-08-18T14:58:24.094Z,25.6
2022-08-18T15:04:38.425Z,25.6
2022-08-18T15:11:28.121Z,25.6
2022-08-18T15:18:09.752Z,25.6
2022-08-18T15:25:12.907Z,25.6
2022-08-18T15:32:27.052Z,25.6
2022-08-18T15:38:57.120Z,25.6
2022-08-18T15:45:28.666Z,25.6
2022-08-18T15:52:14.033Z,25.6
2022-08-18T15:58:55.002Z,25.6
2022-08-18T16:05:30.781Z,25.6
2022-08-18T16:11:46.023Z,25.6
2022-08-18T16:17:56.724Z,25.6
2022-08-18T16:23:37.988Z,25.6
2022-08-18T16:29:24.071Z,25.7
2022-08-18T16:35:04.078Z,25.7
2022-08-18T16:40:50.593Z,25.7
2022-08-18T16:46:29.575Z,25.7
2022-08-18T16:52:14.888Z,25.7
2022-08-18T16:58:31.994Z,25.7
2022-08-18T17:04:37.145Z,25.7
2022-08-18T17:16:17.059Z,25.7
2022-08-18T17:21:58.701Z,25.7
2022-08-18T17:28:26.238Z,25.8
2022-08-18T17:34:11.741Z,25.8
2022-08-18T17:39:55.879Z,25.8
2022-08-18T17:45:54.926Z,25.8
2022-08-18T17:51:52.715Z,25.8
2022-08-18T17:57:42.390Z,25.8
2022-08-18T18:04:10.935Z,25.8
2022-08-18T18:09:52.442Z,25.8
2022-08-18T18:16:02.900Z,25.7
2022-08-18T18:22:18.007Z,25.8
2022-08-18T18:28:07.153Z,25.8
2022-08-18T18:33:49.235Z,25.8
2022-08-18T18:39:14.681Z,25.8
2022-08-18T18:45:01.647Z,25.8
2022-08-18T18:51:33.352Z,25.7
2022-08-18T18:57:12.607Z,25.8
2022-08-18T19:03:23.137Z,25.8
2022-08-18T19:09:06.203Z,25.8
2022-08-18T19:15:15.644Z,25.8
2022-08-18T19:23:08.682Z,25.8
2022-08-18T19:29:45.277Z,25.8
2022-08-18T19:36:19.600Z,25.8
2022-08-18T19:42:21.322Z,25.8
2022-08-18T19:48:24.012Z,25.8
2022-08-18T19:54:25.952Z,25.7
2022-08-18T20:00:23.473Z,25.8
2022-08-18T20:05:50.493Z,25.8
2022-08-18T20:12:14.704Z,25.7
2022-08-18T20:18:08.470Z,25.7
2022-08-18T20:23:48.079Z,25.7
2022-08-18T20:29:31.988Z,25.8
2022-08-18T20:35:08.720Z,25.7
2022-08-18T20:40:51.915Z,25.7
2022-08-18T20:46:54.036Z,25.7
2022-08-18T20:52:45.777Z,25.7
2022-08-18T20:59:08.501Z,25.7
2022-08-18T21:04:53.216Z,25.6
2022-08-18T21:11:02.401Z,25.7
2022-08-18T21:16:58.624Z,25.6
2022-08-18T21:22:34.143Z,25.6
2022-08-18T21:28:10.532Z,25.6
2022-08-18T21:34:29.378Z,25.6
2022-08-18T21:40:12.374Z,25.6
2022-08-18T21:45:34.540Z,25.6
2022-08-18T21:51:04.442Z,25.6
2022-08-18T21:56:41.684Z,25.6
2022-08-18T22:02:27.101Z,25.6
2022-08-18T22:08:32.713Z,25.6
2022-08-18T22:15:10.044Z,25.6
2022-08-18T22:20:35.006Z,25.6
2022-08-18T22:25:59.679Z,25.6
2022-08-18T22:31:42.849Z,25.6
2022-08-18T22:37:19.978Z,25.6
2022-08-18T22:43:00.363Z,25.6
2022-08-18T22:48:32.335Z,25.6
2022-08-18T22:54:09.486Z,25.6
2022-08-18T23:00:42.002Z,25.6
2022-08-18T23:06:01.127Z,25.6
2022-08-18T23:11:47.828Z,25.6
2022-08-18T23:17:38.139Z,25.6
2022-08-18T23:23:14.206Z,25.5
2022-08-18T23:28:57.678Z,25.5
2022-08-18T23:34:45.522Z,25.4
2022-08-18T23:40:31.235Z,25.5
2022-08-18T23:46:09.577Z,25.4
2022-08-18T23:51:51.407Z,25.4
2022-08-18T23:57:32.067Z,25.4
